sensor_id;sensor_type;location;lat;lon;timestamp;pressure;altitude;pressure_sealevel;temperature;humidity
5814;BME280;2933;52.302;8.134;2023-02-12T00:02:04;102614.44;;;6.60;100.00
5814;BME280;2933;52.302;8.134;2023-02-12T00:07:05;102616.25;;;6.53;100.00
5814;BME280;2933;52.302;8.134;2023-02-12T00:12:08;102623.19;;;6.53;100.00
5814;BME280;2933;52.302;8.134;2023-02-12T00:17:10;102623.13;;;6.57;100.00
5814;BME280;2933;52.302;8.134;2023-02-12T00:22:11;102617.94;;;6.56;100.00
5814;BME280;2933;52.302;8.134;2023-02-12T00:27:14;102624.03;;;6.50;100.00
5814;BME280;2933;52.302;8.134;2023-02-12T00:32:16;102622.28;;;6.54;100.00
5814;BME280;2933;52.302;8.134;2023-02-12T00:37:19;102624.06;;;6.49;100.00
5814;BME280;2933;52.302;8.134;2023-02-12T00:42:21;102617.94;;;6.56;100.00
5814;BME280;2933;52.302;8.134;2023-02-12T00:47:23;102626.66;;;6.49;100.00
5814;BME280;2933;52.302;8.134;2023-02-12T00:52:25;102625.81;;;6.45;100.00
5814;BME280;2933;52.302;8.134;2023-02-12T00:57:28;102629.25;;;6.49;100.00
5814;BME280;2933;52.302;8.134;2023-02-12T01:02:29;102631.03;;;6.46;100.00
5814;BME280;2933;52.302;8.134;2023-02-12T01:07:31;102623.22;;;6.45;100.00
5814;BME280;2933;52.302;8.134;2023-02-12T01:12:34;102637.13;;;6.41;100.00
5814;BME280;2933;52.302;8.134;2023-02-12T01:17:36;102632.78;;;6.43;100.00
5814;BME280;2933;52.302;8.134;2023-02-12T01:22:38;102638.72;;;6.56;100.00
5814;BME280;2933;52.302;8.134;2023-02-12T01:27:41;102646.59;;;6.46;100.00
5814;BME280;2933;52.302;8.134;2023-02-12T01:32:42;102647.41;;;6.50;100.00
5814;BME280;2933;52.302;8.134;2023-02-12T01:37:44;102650.91;;;6.46;100.00
5814;BME280;2933;52.302;8.134;2023-02-12T01:42:47;102646.63;;;6.43;100.00
5814;BME280;2933;52.302;8.134;2023-02-12T01:47:48;102638.06;;;6.29;100.00
5814;BME280;2933;52.302;8.134;2023-02-12T01:52:53;102652.66;;;6.45;100.00
5814;BME280;2933;52.302;8.134;2023-02-12T01:57:58;102651.84;;;6.42;100.00
5814;BME280;2933;52.302;8.134;2023-02-12T02:03:00;102656.19;;;6.38;100.00
5814;BME280;2933;52.302;8.134;2023-02-12T02:08:02;102654.50;;;6.33;100.00
5814;BME280;2933;52.302;8.134;2023-02-12T02:13:05;102650.19;;;6.30;100.00
5814;BME280;2933;52.302;8.134;2023-02-12T02:18:29;102636.44;;;6.22;100.00
5814;BME280;2933;52.302;8.134;2023-02-12T02:23:43;102638.19;;;6.17;100.00
5814;BME280;2933;52.302;8.134;2023-02-12T02:29:23;102622.72;;;6.03;100.00
5814;BME280;2933;52.302;8.134;2023-02-12T02:34:36;102626.09;;;6.12;100.00
5814;BME280;2933;52.302;8.134;2023-02-12T02:39:40;102623.59;;;5.95;100.00
5814;BME280;2933;52.302;8.134;2023-02-12T02:44:47;102608.94;;;5.91;100.00
5814;BME280;2933;52.302;8.134;2023-02-12T02:49:57;102615.88;;;5.91;100.00
5814;BME280;2933;52.302;8.134;2023-02-12T02:55:05;102609.81;;;5.89;100.00
5814;BME280;2933;52.302;8.134;2023-02-12T03:00:13;102615.03;;;5.87;100.00
5814;BME280;2933;52.302;8.134;2023-02-12T03:05:20;102596.91;;;5.78;100.00
5814;BME280;2933;52.302;8.134;2023-02-12T03:10:26;102608.13;;;5.83;100.00
5814;BME280;2933;52.302;8.134;2023-02-12T03:15:32;102615.09;;;5.76;100.00
5814;BME280;2933;52.302;8.134;2023-02-12T03:20:40;102600.41;;;5.74;100.00
5814;BME280;2933;52.302;8.134;2023-02-12T03:25:48;102598.72;;;5.70;100.00
5814;BME280;2933;52.302;8.134;2023-02-12T03:30:59;102601.28;;;5.73;100.00
5814;BME280;2933;52.302;8.134;2023-02-12T03:36:13;102602.19;;;5.64;100.00
5814;BME280;2933;52.302;8.134;2023-02-12T03:41:24;102603.16;;;5.49;100.00
5814;BME280;2933;52.302;8.134;2023-02-12T03:46:33;102604.88;;;5.52;100.00
5814;BME280;2933;52.302;8.134;2023-02-12T03:51:41;102609.19;;;5.51;100.00
5814;BME280;2933;52.302;8.134;2023-02-12T03:56:47;102611.81;;;5.49;100.00
5814;BME280;2933;52.302;8.134;2023-02-12T04:01:53;102620.38;;;5.58;100.00
5814;BME280;2933;52.302;8.134;2023-02-12T04:06:56;102617.81;;;5.52;100.00
5814;BME280;2933;52.302;8.134;2023-02-12T04:12:09;102622.13;;;5.59;100.00
5814;BME280;2933;52.302;8.134;2023-02-12T04:17:21;102631.56;;;5.72;100.00
5814;BME280;2933;52.302;8.134;2023-02-12T04:22:39;102635.03;;;5.66;100.00
5814;BME280;2933;52.302;8.134;2023-02-12T04:27:50;102646.22;;;5.72;100.00
5814;BME280;2933;52.302;8.134;2023-02-12T04:32:57;102654.06;;;5.67;100.00
5814;BME280;2933;52.302;8.134;2023-02-12T04:38:06;102653.22;;;5.59;100.00
5814;BME280;2933;52.302;8.134;2023-02-12T04:43:10;102652.38;;;5.58;100.00
5814;BME280;2933;52.302;8.134;2023-02-12T04:48:11;102670.53;;;5.58;100.00
5814;BME280;2933;52.302;8.134;2023-02-12T04:53:15;102670.50;;;5.66;100.00
5814;BME280;2933;52.302;8.134;2023-02-12T04:58:17;102662.72;;;5.66;100.00
5814;BME280;2933;52.302;8.134;2023-02-12T05:03:19;102658.38;;;5.70;100.00
5814;BME280;2933;52.302;8.134;2023-02-12T05:08:22;102666.97;;;5.72;100.00
5814;BME280;2933;52.302;8.134;2023-02-12T05:13:23;102656.66;;;5.62;100.00
5814;BME280;2933;52.302;8.134;2023-02-12T05:18:25;102662.75;;;5.60;100.00
5814;BME280;2933;52.302;8.134;2023-02-12T05:23:29;102671.38;;;5.60;100.00
5814;BME280;2933;52.302;8.134;2023-02-12T05:28:31;102660.16;;;5.55;100.00
5814;BME280;2933;52.302;8.134;2023-02-12T05:33:32;102665.34;;;5.60;100.00
5814;BME280;2933;52.302;8.134;2023-02-12T05:38:35;102664.47;;;5.53;100.00
5814;BME280;2933;52.302;8.134;2023-02-12T05:43:37;102666.19;;;5.56;100.00
5814;BME280;2933;52.302;8.134;2023-02-12T05:48:39;102665.34;;;5.58;100.00
5814;BME280;2933;52.302;8.134;2023-02-12T05:53:42;102673.09;;;5.66;100.00
5814;BME280;2933;52.302;8.134;2023-02-12T05:58:45;102665.31;;;5.64;100.00
5814;BME280;2933;52.302;8.134;2023-02-12T06:03:47;102674.00;;;5.54;100.00
5814;BME280;2933;52.302;8.134;2023-02-12T06:08:50;102668.84;;;5.51;100.00
5814;BME280;2933;52.302;8.134;2023-02-12T06:13:51;102666.22;;;5.53;100.00
5814;BME280;2933;52.302;8.134;2023-02-12T06:18:55;102671.44;;;5.49;100.00
5814;BME280;2933;52.302;8.134;2023-02-12T06:23:58;102680.91;;;5.54;100.00
5814;BME280;2933;52.302;8.134;2023-02-12T06:29:00;102672.25;;;5.53;100.00
5814;BME280;2933;52.302;8.134;2023-02-12T06:34:04;102683.50;;;5.54;100.00
5814;BME280;2933;52.302;8.134;2023-02-12T06:39:07;102682.66;;;5.47;100.00
5814;BME280;2933;52.302;8.134;2023-02-12T06:44:09;102692.13;;;5.54;100.00
5814;BME280;2933;52.302;8.134;2023-02-12T06:49:12;102699.06;;;5.58;100.00
5814;BME280;2933;52.302;8.134;2023-02-12T06:54:17;102708.53;;;5.58;100.00
5814;BME280;2933;52.302;8.134;2023-02-12T06:59:18;102709.41;;;5.57;100.00
5814;BME280;2933;52.302;8.134;2023-02-12T07:04:20;102724.16;;;5.48;100.00
5814;BME280;2933;52.302;8.134;2023-02-12T07:09:23;102699.97;;;5.42;100.00
5814;BME280;2933;52.302;8.134;2023-02-12T07:14:24;102719.81;;;5.54;100.00
5814;BME280;2933;52.302;8.134;2023-02-12T07:19:27;102721.53;;;5.53;100.00
5814;BME280;2933;52.302;8.134;2023-02-12T07:24:30;102722.41;;;5.54;100.00
5814;BME280;2933;52.302;8.134;2023-02-12T07:29:32;102722.41;;;5.54;100.00
5814;BME280;2933;52.302;8.134;2023-02-12T07:34:33;102733.59;;;5.65;100.00
5814;BME280;2933;52.302;8.134;2023-02-12T07:39:36;102738.78;;;5.62;100.00
5814;BME280;2933;52.302;8.134;2023-02-12T07:44:38;102745.63;;;5.75;100.00
5814;BME280;2933;52.302;8.134;2023-02-12T07:49:39;102743.09;;;5.66;100.00
5814;BME280;2933;52.302;8.134;2023-02-12T07:54:42;102751.69;;;5.74;100.00
5814;BME280;2933;52.302;8.134;2023-02-12T07:59:44;102739.66;;;5.62;100.00
5814;BME280;2933;52.302;8.134;2023-02-12T08:04:45;102756.84;;;5.80;100.00
5814;BME280;2933;52.302;8.134;2023-02-12T08:09:48;102759.47;;;5.74;100.00
5814;BME280;2933;52.302;8.134;2023-02-12T08:14:50;102764.63;;;5.83;100.00
5814;BME280;2933;52.302;8.134;2023-02-12T08:19:53;102762.94;;;5.70;100.00
5814;BME280;2933;52.302;8.134;2023-02-12T08:24:56;102768.13;;;5.73;100.00
5814;BME280;2933;52.302;8.134;2023-02-12T08:29:57;102782.84;;;5.70;100.00
5814;BME280;2933;52.302;8.134;2023-02-12T08:34:59;102785.44;;;5.66;100.00
5814;BME280;2933;52.302;8.134;2023-02-12T08:40:02;102781.13;;;5.69;100.00
5814;BME280;2933;52.302;8.134;2023-02-12T08:45:04;102793.22;;;5.71;100.00
5814;BME280;2933;52.302;8.134;2023-02-12T08:50:06;102791.47;;;5.70;100.00
5814;BME280;2933;52.302;8.134;2023-02-12T08:55:09;102791.44;;;5.78;100.00
5814;BME280;2933;52.302;8.134;2023-02-12T09:00:12;102800.03;;;5.89;100.00
5814;BME280;2933;52.302;8.134;2023-02-12T09:05:13;102804.41;;;5.87;100.00
5814;BME280;2933;52.302;8.134;2023-02-12T09:10:17;102801.81;;;5.87;100.00
5814;BME280;2933;52.302;8.134;2023-02-12T09:15:18;102814.72;;;5.96;100.00
5814;BME280;2933;52.302;8.134;2023-02-12T09:20:20;102819.03;;;5.97;100.00
5814;BME280;2933;52.302;8.134;2023-02-12T09:25:23;102820.78;;;6.05;100.00
5814;BME280;2933;52.302;8.134;2023-02-12T09:30:24;102810.41;;;5.97;100.00
5814;BME280;2933;52.302;8.134;2023-02-12T09:35:26;102824.25;;;6.07;100.00
5814;BME280;2933;52.302;8.134;2023-02-12T09:40:34;102831.13;;;6.16;100.00
5814;BME280;2933;52.302;8.134;2023-02-12T09:45:41;102827.56;;;6.32;100.00
5814;BME280;2933;52.302;8.134;2023-02-12T09:50:48;102830.16;;;6.32;100.00
5814;BME280;2933;52.302;8.134;2023-02-12T09:55:54;102832.81;;;6.21;100.00
5814;BME280;2933;52.302;8.134;2023-02-12T10:00:56;102819.00;;;6.19;100.00
5814;BME280;2933;52.302;8.134;2023-02-12T10:06:00;102829.31;;;6.28;100.00
5814;BME280;2933;52.302;8.134;2023-02-12T10:16:48;102841.44;;;6.28;100.00
5814;BME280;2933;52.302;8.134;2023-02-12T10:22:00;102850.88;;;6.40;100.00
5814;BME280;2933;52.302;8.134;2023-02-12T10:27:10;102853.50;;;6.35;100.00
5814;BME280;2933;52.302;8.134;2023-02-12T10:32:22;102852.63;;;6.39;100.00
5814;BME280;2933;52.302;8.134;2023-02-12T10:37:31;102818.09;;;6.25;100.00
5814;BME280;2933;52.302;8.134;2023-02-12T10:42:39;102850.88;;;6.41;100.00
5814;BME280;2933;52.302;8.134;2023-02-12T10:47:42;102849.13;;;6.43;100.00
5814;BME280;2933;52.302;8.134;2023-02-12T10:52:47;102846.50;;;6.51;100.00
5814;BME280;2933;52.302;8.134;2023-02-12T10:58:15;102806.03;;;6.19;100.00
5814;BME280;2933;52.302;8.134;2023-02-12T11:03:20;102842.19;;;6.52;100.00
5814;BME280;2933;52.302;8.134;2023-02-12T11:08:29;102837.06;;;6.39;100.00
5814;BME280;2933;52.302;8.134;2023-02-12T11:13:33;102806.81;;;6.30;100.00
5814;BME280;2933;52.302;8.134;2023-02-12T11:18:36;102850.72;;;6.69;100.00
5814;BME280;2933;52.302;8.134;2023-02-12T11:23:39;102837.75;;;6.68;100.00
5814;BME280;2933;52.302;8.134;2023-02-12T11:28:52;102832.53;;;6.71;100.00
5814;BME280;2933;52.302;8.134;2023-02-12T11:34:09;102831.63;;;6.75;100.00
5814;BME280;2933;52.302;8.134;2023-02-12T11:39:19;102822.16;;;6.68;100.00
5814;BME280;2933;52.302;8.134;2023-02-12T11:44:26;102827.22;;;6.86;100.00
5814;BME280;2933;52.302;8.134;2023-02-12T11:49:30;102823.78;;;6.84;100.00
5814;BME280;2933;52.302;8.134;2023-02-12T11:54:39;102816.81;;;6.88;100.00
5814;BME280;2933;52.302;8.134;2023-02-12T11:59:45;102824.56;;;6.94;100.00
5814;BME280;2933;52.302;8.134;2023-02-12T12:04:49;102807.00;;;7.19;100.00
5814;BME280;2933;52.302;8.134;2023-02-12T12:09:56;102808.75;;;7.19;100.00
5814;BME280;2933;52.302;8.134;2023-02-12T12:15:09;102804.50;;;7.10;100.00
5814;BME280;2933;52.302;8.134;2023-02-12T12:20:49;102791.47;;;7.16;100.00
5814;BME280;2933;52.302;8.134;2023-02-12T12:26:01;102795.72;;;7.25;100.00
5814;BME280;2933;52.302;8.134;2023-02-12T12:31:17;102792.28;;;7.21;100.00
5814;BME280;2933;52.302;8.134;2023-02-12T12:42:37;102773.19;;;7.22;100.00
5814;BME280;2933;52.302;8.134;2023-02-12T12:47:59;102771.34;;;7.32;100.00
5814;BME280;2933;52.302;8.134;2023-02-12T12:53:17;102766.94;;;7.40;100.00
5814;BME280;2933;52.302;8.134;2023-02-12T12:58:32;102769.50;;;7.43;100.00
5814;BME280;2933;52.302;8.134;2023-02-12T13:10:10;102703.00;;;7.22;100.00
5814;BME280;2933;52.302;8.134;2023-02-12T13:15:53;102729.69;;;7.40;100.00
5814;BME280;2933;52.302;8.134;2023-02-12T13:21:18;102715.44;;;7.69;100.00
5814;BME280;2933;52.302;8.134;2023-02-12T13:26:53;102699.25;;;7.47;100.00
5814;BME280;2933;52.302;8.134;2023-02-12T13:32:24;102716.22;;;7.75;100.00
5814;BME280;2933;52.302;8.134;2023-02-12T13:37:42;102680.16;;;7.48;100.00
5814;BME280;2933;52.302;8.134;2023-02-12T13:42:54;102712.81;;;7.70;100.00
5814;BME280;2933;52.302;8.134;2023-02-12T13:48:31;102697.44;;;7.52;100.00
5814;BME280;2933;52.302;8.134;2023-02-12T13:53:45;102722.38;;;7.68;100.00
5814;BME280;2933;52.302;8.134;2023-02-12T13:58:52;102745.56;;;7.87;100.00
5814;BME280;2933;52.302;8.134;2023-02-12T14:03:55;102743.00;;;7.84;100.00
5814;BME280;2933;52.302;8.134;2023-02-12T14:09:07;102729.16;;;7.83;100.00
5814;BME280;2933;52.302;8.134;2023-02-12T14:14:10;102744.53;;;7.99;100.00
5814;BME280;2933;52.302;8.134;2023-02-12T14:19:53;102742.94;;;7.88;100.00
5814;BME280;2933;52.302;8.134;2023-02-12T14:24:56;102748.00;;;7.98;100.00
5814;BME280;2933;52.302;8.134;2023-02-12T14:30:20;102738.47;;;7.97;100.00
5814;BME280;2933;52.302;8.134;2023-02-12T14:35:31;102734.97;;;8.01;100.00
5814;BME280;2933;52.302;8.134;2023-02-12T14:40:41;102727.22;;;7.96;100.00
5814;BME280;2933;52.302;8.134;2023-02-12T14:45:45;102732.38;;;8.01;100.00
5814;BME280;2933;52.302;8.134;2023-02-12T14:50:46;102727.22;;;7.96;100.00
5814;BME280;2933;52.302;8.134;2023-02-12T14:55:51;102722.03;;;7.93;100.00
5814;BME280;2933;52.302;8.134;2023-02-12T15:00:55;102724.69;;;7.91;100.00
5814;BME280;2933;52.302;8.134;2023-02-12T15:06:03;102708.31;;;7.85;100.00
5814;BME280;2933;52.302;8.134;2023-02-12T15:11:19;102679.06;;;7.67;100.00
5814;BME280;2933;52.302;8.134;2023-02-12T15:16:32;102715.00;;;8.01;100.00
5814;BME280;2933;52.302;8.134;2023-02-12T15:21:35;102712.50;;;7.93;100.00
5814;BME280;2933;52.302;8.134;2023-02-12T15:26:39;102723.81;;;7.92;100.00
5814;BME280;2933;52.302;8.134;2023-02-12T15:31:43;102717.75;;;7.92;100.00
5814;BME280;2933;52.302;8.134;2023-02-12T15:36:50;102717.84;;;7.86;100.00
5814;BME280;2933;52.302;8.134;2023-02-12T15:41:52;102716.19;;;7.79;100.00
5814;BME280;2933;52.302;8.134;2023-02-12T15:46:59;102711.94;;;7.71;100.00
5814;BME280;2933;52.302;8.134;2023-02-12T15:52:05;102726.69;;;7.72;100.00
5814;BME280;2933;52.302;8.134;2023-02-12T15:57:09;102719.78;;;7.70;100.00
5814;BME280;2933;52.302;8.134;2023-02-12T16:02:19;102723.25;;;7.69;100.00
5814;BME280;2933;52.302;8.134;2023-02-12T16:07:22;102714.69;;;7.59;100.00
5814;BME280;2933;52.302;8.134;2023-02-12T16:12:28;102715.66;;;7.52;100.00
5814;BME280;2933;52.302;8.134;2023-02-12T16:17:34;102709.56;;;7.53;100.00
5814;BME280;2933;52.302;8.134;2023-02-12T16:22:37;102715.66;;;7.52;100.00
5814;BME280;2933;52.302;8.134;2023-02-12T16:27:39;102719.16;;;7.49;100.00
5814;BME280;2933;52.302;8.134;2023-02-12T16:32:43;102721.81;;;7.43;100.00
5814;BME280;2933;52.302;8.134;2023-02-12T16:37:47;102728.84;;;7.36;100.00
5814;BME280;2933;52.302;8.134;2023-02-12T16:43:22;102734.13;;;7.30;100.00
5814;BME280;2933;52.302;8.134;2023-02-12T16:48:36;102714.28;;;7.18;100.00
5814;BME280;2933;52.302;8.134;2023-02-12T16:53:39;102732.47;;;7.21;100.00
5814;BME280;2933;52.302;8.134;2023-02-12T16:58:48;102729.94;;;7.14;100.00
5814;BME280;2933;52.302;8.134;2023-02-12T17:04:00;102739.50;;;7.11;100.00
5814;BME280;2933;52.302;8.134;2023-02-12T17:09:04;102748.16;;;7.12;100.00
5814;BME280;2933;52.302;8.134;2023-02-12T17:14:17;102750.84;;;7.04;100.00
5814;BME280;2933;52.302;8.134;2023-02-12T17:19:20;102756.03;;;7.07;100.00
5814;BME280;2933;52.302;8.134;2023-02-12T17:24:23;102762.91;;;7.08;100.00
5814;BME280;2933;52.302;8.134;2023-02-12T17:29:27;102760.38;;;7.05;100.00
5814;BME280;2933;52.302;8.134;2023-02-12T17:34:31;102746.66;;;6.89;100.00
5814;BME280;2933;52.302;8.134;2023-02-12T17:39:32;102771.72;;;6.97;100.00
5814;BME280;2933;52.302;8.134;2023-02-12T17:44:34;102776.91;;;6.95;100.00
5814;BME280;2933;52.302;8.134;2023-02-12T17:49:37;102772.56;;;6.95;100.00
5814;BME280;2933;52.302;8.134;2023-02-12T17:54:39;102779.53;;;6.95;100.00
5814;BME280;2933;52.302;8.134;2023-02-12T17:59:44;102782.16;;;6.90;100.00
5814;BME280;2933;52.302;8.134;2023-02-12T18:04:47;102764.91;;;6.82;100.00
5814;BME280;2933;52.302;8.134;2023-02-12T18:09:48;102776.13;;;6.84;100.00
5814;BME280;2933;52.302;8.134;2023-02-12T18:14:55;102755.44;;;6.71;100.00
5814;BME280;2933;52.302;8.134;2023-02-12T18:19:58;102737.31;;;6.65;100.00
5814;BME280;2933;52.302;8.134;2023-02-12T18:24:59;102774.38;;;6.86;100.00
5814;BME280;2933;52.302;8.134;2023-02-12T18:30:18;102754.56;;;6.72;100.00
5814;BME280;2933;52.302;8.134;2023-02-12T18:35:35;102765.81;;;6.74;100.00
5814;BME280;2933;52.302;8.134;2023-02-12T18:40:38;102764.91;;;6.78;100.00
5814;BME280;2933;52.302;8.134;2023-02-12T18:45:40;102755.44;;;6.71;100.00
5814;BME280;2933;52.302;8.134;2023-02-12T18:50:43;102753.75;;;6.70;100.00
5814;BME280;2933;52.302;8.134;2023-02-12T18:55:45;102746.09;;;6.53;100.00
5814;BME280;2933;52.302;8.134;2023-02-12T19:00:47;102740.03;;;6.51;100.00
5814;BME280;2933;52.302;8.134;2023-02-12T19:05:50;102761.56;;;6.67;100.00
5814;BME280;2933;52.302;8.134;2023-02-12T19:10:52;102762.44;;;6.65;100.00
5814;BME280;2933;52.302;8.134;2023-02-12T19:15:53;102747.84;;;6.50;100.00
5814;BME280;2933;52.302;8.134;2023-02-12T19:20:57;102778.03;;;6.65;100.00
5814;BME280;2933;52.302;8.134;2023-02-12T19:26:01;102773.72;;;6.60;100.00
5814;BME280;2933;52.302;8.134;2023-02-12T19:31:10;102767.72;;;6.52;100.00
5814;BME280;2933;52.302;8.134;2023-02-12T19:36:15;102768.59;;;6.51;100.00
5814;BME280;2933;52.302;8.134;2023-02-12T19:41:18;102757.41;;;6.43;100.00
5814;BME280;2933;52.302;8.134;2023-02-12T19:46:21;102767.75;;;6.47;100.00
5814;BME280;2933;52.302;8.134;2023-02-12T19:51:24;102760.91;;;6.40;100.00
5814;BME280;2933;52.302;8.134;2023-02-12T19:56:26;102760.91;;;6.40;100.00
5814;BME280;2933;52.302;8.134;2023-02-12T20:01:29;102767.78;;;6.41;100.00
5814;BME280;2933;52.302;8.134;2023-02-12T20:06:33;102776.47;;;6.40;100.00
5814;BME280;2933;52.302;8.134;2023-02-12T20:11:40;102770.41;;;6.40;100.00
5814;BME280;2933;52.302;8.134;2023-02-12T20:16:42;102773.88;;;6.37;100.00
5814;BME280;2933;52.302;8.134;2023-02-12T20:21:48;102772.16;;;6.36;100.00
5814;BME280;2933;52.302;8.134;2023-02-12T20:26:55;102767.88;;;6.29;100.00
5814;BME280;2933;52.302;8.134;2023-02-12T20:31:57;102775.63;;;6.35;100.00
5814;BME280;2933;52.302;8.134;2023-02-12T20:37:06;102739.44;;;6.10;100.00
5814;BME280;2933;52.302;8.134;2023-02-12T20:42:07;102771.38;;;6.28;100.00
5814;BME280;2933;52.302;8.134;2023-02-12T20:47:09;102729.06;;;6.10;100.00
5814;BME280;2933;52.302;8.134;2023-02-12T20:52:23;102764.41;;;6.33;100.00
5814;BME280;2933;52.302;8.134;2023-02-12T20:57:31;102728.19;;;6.13;100.00
5814;BME280;2933;52.302;8.134;2023-02-12T21:02:33;102745.47;;;6.17;100.00
5814;BME280;2933;52.302;8.134;2023-02-12T21:07:37;102746.38;;;6.13;100.00
5814;BME280;2933;52.302;8.134;2023-02-12T21:12:47;102770.47;;;6.27;100.00
5814;BME280;2933;52.302;8.134;2023-02-12T21:17:54;102699.72;;;5.93;100.00
5814;BME280;2933;52.302;8.134;2023-02-12T21:23:23;102713.53;;;6.03;100.00
5814;BME280;2933;52.302;8.134;2023-02-12T21:28:27;102751.47;;;6.25;100.00
5814;BME280;2933;52.302;8.134;2023-02-12T21:33:45;102704.91;;;5.99;100.00
5814;BME280;2933;52.302;8.134;2023-02-12T21:39:08;102745.44;;;6.22;100.00
5814;BME280;2933;52.302;8.134;2023-02-12T21:44:12;102734.25;;;6.13;100.00
5814;BME280;2933;52.302;8.134;2023-02-12T21:49:19;102735.03;;;6.20;100.00
5814;BME280;2933;52.302;8.134;2023-02-12T21:54:29;102738.53;;;6.19;100.00
5814;BME280;2933;52.302;8.134;2023-02-12T21:59:40;102725.56;;;6.16;100.00
5814;BME280;2933;52.302;8.134;2023-02-12T22:04:44;102724.72;;;6.12;100.00
5814;BME280;2933;52.302;8.134;2023-02-12T22:09:56;102729.13;;;6.01;100.00
5814;BME280;2933;52.302;8.134;2023-02-12T22:20:21;102739.44;;;6.12;100.00
5814;BME280;2933;52.302;8.134;2023-02-12T22:25:47;102717.84;;;5.97;100.00
5814;BME280;2933;52.302;8.134;2023-02-12T22:30:52;102695.50;;;5.76;100.00
5814;BME280;2933;52.302;8.134;2023-02-12T22:35:53;102732.56;;;6.02;100.00
5814;BME280;2933;52.302;8.134;2023-02-12T22:41:15;102697.22;;;5.79;100.00
5814;BME280;2933;52.302;8.134;2023-02-12T22:46:22;102721.34;;;5.95;100.00
5814;BME280;2933;52.302;8.134;2023-02-12T22:51:27;102735.13;;;6.06;100.00
5814;BME280;2933;52.302;8.134;2023-02-12T22:56:31;102730.84;;;6.02;100.00
5814;BME280;2933;52.302;8.134;2023-02-12T23:01:33;102694.63;;;5.77;100.00
5814;BME280;2933;52.302;8.134;2023-02-12T23:06:34;102724.78;;;5.94;100.00
5814;BME280;2933;52.302;8.134;2023-02-12T23:11:37;102727.38;;;5.94;100.00
5814;BME280;2933;52.302;8.134;2023-02-12T23:16:39;102728.25;;;5.96;100.00
5814;BME280;2933;52.302;8.134;2023-02-12T23:21:41;102729.97;;;5.95;100.00
5814;BME280;2933;52.302;8.134;2023-02-12T23:26:44;102729.97;;;6.00;100.00
5814;BME280;2933;52.302;8.134;2023-02-12T23:31:46;102723.94;;;6.00;100.00
5814;BME280;2933;52.302;8.134;2023-02-12T23:36:47;102724.78;;;5.97;100.00
5814;BME280;2933;52.302;8.134;2023-02-12T23:41:51;102717.88;;;5.93;100.00
5814;BME280;2933;52.302;8.134;2023-02-12T23:46:52;102708.41;;;5.87;100.00
5814;BME280;2933;52.302;8.134;2023-02-12T23:51:59;102713.56;;;5.90;100.00
5814;BME280;2933;52.302;8.134;2023-02-12T23:57:15;102699.78;;;5.83;100.00
